sensor_id;sensor_type;location;lat;lon;timestamp;P1;durP1;ratioP1;P2;durP2;ratioP2
79363;SDS011;68832;53.112;17.980;2023-05-07T00:01:29;13.30;;;8.70;;
79363;SDS011;68832;53.112;17.980;2023-05-07T00:03:56;16.50;;;8.00;;
79363;SDS011;68832;53.112;17.980;2023-05-07T00:06:23;11.90;;;8.10;;
79363;SDS011;68832;53.112;17.980;2023-05-07T00:08:50;17.60;;;9.70;;
79363;SDS011;68832;53.112;17.980;2023-05-07T00:11:17;12.80;;;7.70;;
79363;SDS011;68832;53.112;17.980;2023-05-07T00:13:44;12.80;;;9.00;;
79363;SDS011;68832;53.112;17.980;2023-05-07T00:16:10;12.00;;;8.50;;
79363;SDS011;68832;53.112;17.980;2023-05-07T00:18:37;12.90;;;8.10;;
79363;SDS011;68832;53.112;17.980;2023-05-07T00:21:04;11.50;;;8.80;;
79363;SDS011;68832;53.112;17.980;2023-05-07T00:23:30;13.80;;;11.30;;
79363;SDS011;68832;53.112;17.980;2023-05-07T00:26:00;13.10;;;8.20;;
79363;SDS011;68832;53.112;17.980;2023-05-07T00:28:27;16.40;;;10.70;;
79363;SDS011;68832;53.112;17.980;2023-05-07T00:30:54;15.50;;;9.20;;
79363;SDS011;68832;53.112;17.980;2023-05-07T00:33:21;13.60;;;8.10;;
79363;SDS011;68832;53.112;17.980;2023-05-07T00:35:48;15.20;;;9.60;;
79363;SDS011;68832;53.112;17.980;2023-05-07T00:38:17;12.00;;;8.60;;
79363;SDS011;68832;53.112;17.980;2023-05-07T00:40:44;15.20;;;8.70;;
79363;SDS011;68832;53.112;17.980;2023-05-07T00:43:12;13.30;;;9.60;;
79363;SDS011;68832;53.112;17.980;2023-05-07T00:45:39;15.00;;;10.20;;
79363;SDS011;68832;53.112;17.980;2023-05-07T00:48:06;15.00;;;9.70;;
79363;SDS011;68832;53.112;17.980;2023-05-07T00:50:32;14.70;;;9.40;;
79363;SDS011;68832;53.112;17.980;2023-05-07T00:52:59;14.70;;;9.50;;
79363;SDS011;68832;53.112;17.980;2023-05-07T00:55:26;18.20;;;13.20;;
79363;SDS011;68832;53.112;17.980;2023-05-07T00:57:53;15.20;;;10.40;;
79363;SDS011;68832;53.112;17.980;2023-05-07T01:00:20;16.80;;;12.40;;
79363;SDS011;68832;53.112;17.980;2023-05-07T01:02:47;19.00;;;10.60;;
79363;SDS011;68832;53.112;17.980;2023-05-07T01:05:15;17.90;;;10.20;;
79363;SDS011;68832;53.112;17.980;2023-05-07T01:07:43;17.00;;;9.70;;
79363;SDS011;68832;53.112;17.980;2023-05-07T01:10:11;14.90;;;10.50;;
79363;SDS011;68832;53.112;17.980;2023-05-07T01:12:38;19.20;;;10.40;;
79363;SDS011;68832;53.112;17.980;2023-05-07T01:15:07;17.40;;;11.10;;
79363;SDS011;68832;53.112;17.980;2023-05-07T01:17:35;17.10;;;11.70;;
79363;SDS011;68832;53.112;17.980;2023-05-07T01:20:05;21.80;;;11.60;;
79363;SDS011;68832;53.112;17.980;2023-05-07T01:22:34;14.60;;;10.30;;
79363;SDS011;68832;53.112;17.980;2023-05-07T01:25:03;16.10;;;8.80;;
79363;SDS011;68832;53.112;17.980;2023-05-07T01:27:31;14.30;;;9.60;;
79363;SDS011;68832;53.112;17.980;2023-05-07T01:30:00;20.90;;;11.60;;
79363;SDS011;68832;53.112;17.980;2023-05-07T01:32:28;14.00;;;10.90;;
79363;SDS011;68832;53.112;17.980;2023-05-07T01:34:58;16.60;;;10.30;;
79363;SDS011;68832;53.112;17.980;2023-05-07T01:37:27;19.10;;;11.90;;
79363;SDS011;68832;53.112;17.980;2023-05-07T01:39:54;18.20;;;11.60;;
79363;SDS011;68832;53.112;17.980;2023-05-07T01:42:22;15.20;;;10.30;;
79363;SDS011;68832;53.112;17.980;2023-05-07T01:44:48;17.70;;;10.90;;
79363;SDS011;68832;53.112;17.980;2023-05-07T01:47:15;18.10;;;10.70;;
79363;SDS011;68832;53.112;17.980;2023-05-07T01:49:42;15.70;;;10.50;;
79363;SDS011;68832;53.112;17.980;2023-05-07T01:52:10;20.20;;;11.30;;
79363;SDS011;68832;53.112;17.980;2023-05-07T01:54:37;17.00;;;12.00;;
79363;SDS011;68832;53.112;17.980;2023-05-07T01:57:05;16.10;;;9.80;;
79363;SDS011;68832;53.112;17.980;2023-05-07T01:59:32;19.20;;;11.80;;
79363;SDS011;68832;53.112;17.980;2023-05-07T02:02:02;21.20;;;12.20;;
79363;SDS011;68832;53.112;17.980;2023-05-07T02:04:30;16.50;;;12.20;;
79363;SDS011;68832;53.112;17.980;2023-05-07T02:06:59;20.80;;;10.70;;
79363;SDS011;68832;53.112;17.980;2023-05-07T02:09:26;16.50;;;10.10;;
79363;SDS011;68832;53.112;17.980;2023-05-07T02:11:53;15.00;;;9.90;;
79363;SDS011;68832;53.112;17.980;2023-05-07T02:14:21;19.10;;;12.10;;
79363;SDS011;68832;53.112;17.980;2023-05-07T02:16:48;19.20;;;13.80;;
79363;SDS011;68832;53.112;17.980;2023-05-07T02:19:16;16.90;;;11.70;;
79363;SDS011;68832;53.112;17.980;2023-05-07T02:21:42;18.80;;;12.20;;
79363;SDS011;68832;53.112;17.980;2023-05-07T02:24:09;18.70;;;12.70;;
79363;SDS011;68832;53.112;17.980;2023-05-07T02:26:36;19.00;;;12.70;;
79363;SDS011;68832;53.112;17.980;2023-05-07T02:29:03;18.50;;;12.40;;
79363;SDS011;68832;53.112;17.980;2023-05-07T02:31:30;17.90;;;12.10;;
79363;SDS011;68832;53.112;17.980;2023-05-07T02:33:57;15.30;;;12.20;;
79363;SDS011;68832;53.112;17.980;2023-05-07T02:36:24;20.90;;;14.10;;
79363;SDS011;68832;53.112;17.980;2023-05-07T02:38:59;17.80;;;12.30;;
79363;SDS011;68832;53.112;17.980;2023-05-07T02:41:27;22.90;;;13.90;;
79363;SDS011;68832;53.112;17.980;2023-05-07T02:43:55;21.60;;;14.10;;
79363;SDS011;68832;53.112;17.980;2023-05-07T02:46:22;22.90;;;14.30;;
79363;SDS011;68832;53.112;17.980;2023-05-07T02:48:54;24.50;;;14.20;;
79363;SDS011;68832;53.112;17.980;2023-05-07T02:51:21;25.30;;;13.40;;
79363;SDS011;68832;53.112;17.980;2023-05-07T02:53:49;22.90;;;14.20;;
79363;SDS011;68832;53.112;17.980;2023-05-07T02:56:15;22.00;;;14.90;;
79363;SDS011;68832;53.112;17.980;2023-05-07T02:58:42;24.70;;;15.10;;
79363;SDS011;68832;53.112;17.980;2023-05-07T03:01:09;23.50;;;13.70;;
79363;SDS011;68832;53.112;17.980;2023-05-07T03:03:50;25.80;;;14.20;;
79363;SDS011;68832;53.112;17.980;2023-05-07T03:06:16;20.00;;;13.30;;
79363;SDS011;68832;53.112;17.980;2023-05-07T03:08:43;20.30;;;13.50;;
79363;SDS011;68832;53.112;17.980;2023-05-07T03:11:10;22.10;;;13.00;;
79363;SDS011;68832;53.112;17.980;2023-05-07T03:13:37;19.90;;;11.80;;
79363;SDS011;68832;53.112;17.980;2023-05-07T03:16:04;26.10;;;15.20;;
79363;SDS011;68832;53.112;17.980;2023-05-07T03:18:31;21.20;;;12.50;;
79363;SDS011;68832;53.112;17.980;2023-05-07T03:20:58;16.90;;;10.90;;
79363;SDS011;68832;53.112;17.980;2023-05-07T03:23:25;21.90;;;13.60;;
79363;SDS011;68832;53.112;17.980;2023-05-07T03:25:51;20.50;;;11.90;;
79363;SDS011;68832;53.112;17.980;2023-05-07T03:28:18;19.60;;;11.90;;
79363;SDS011;68832;53.112;17.980;2023-05-07T03:30:52;19.90;;;12.30;;
79363;SDS011;68832;53.112;17.980;2023-05-07T03:33:19;19.70;;;13.20;;
79363;SDS011;68832;53.112;17.980;2023-05-07T03:35:47;19.20;;;11.80;;
79363;SDS011;68832;53.112;17.980;2023-05-07T03:38:18;17.50;;;12.10;;
79363;SDS011;68832;53.112;17.980;2023-05-07T03:40:45;22.00;;;12.80;;
79363;SDS011;68832;53.112;17.980;2023-05-07T03:43:12;20.00;;;11.90;;
79363;SDS011;68832;53.112;17.980;2023-05-07T03:45:40;18.00;;;10.60;;
79363;SDS011;68832;53.112;17.980;2023-05-07T03:48:14;31.30;;;12.90;;
79363;SDS011;68832;53.112;17.980;2023-05-07T03:50:41;21.00;;;13.50;;
79363;SDS011;68832;53.112;17.980;2023-05-07T03:53:08;18.30;;;11.50;;
79363;SDS011;68832;53.112;17.980;2023-05-07T03:55:38;17.60;;;11.00;;
79363;SDS011;68832;53.112;17.980;2023-05-07T03:58:05;21.40;;;13.00;;
79363;SDS011;68832;53.112;17.980;2023-05-07T04:00:32;20.70;;;12.60;;
79363;SDS011;68832;53.112;17.980;2023-05-07T04:03:06;16.60;;;11.90;;
79363;SDS011;68832;53.112;17.980;2023-05-07T04:05:33;17.20;;;11.00;;
79363;SDS011;68832;53.112;17.980;2023-05-07T04:08:01;22.50;;;13.50;;
79363;SDS011;68832;53.112;17.980;2023-05-07T04:10:35;19.70;;;12.70;;
79363;SDS011;68832;53.112;17.980;2023-05-07T04:13:05;20.50;;;13.30;;
79363;SDS011;68832;53.112;17.980;2023-05-07T04:15:33;19.90;;;12.90;;
79363;SDS011;68832;53.112;17.980;2023-05-07T04:18:00;17.00;;;11.90;;
79363;SDS011;68832;53.112;17.980;2023-05-07T04:20:26;21.90;;;14.30;;
79363;SDS011;68832;53.112;17.980;2023-05-07T04:23:01;19.20;;;13.20;;
79363;SDS011;68832;53.112;17.980;2023-05-07T04:25:28;21.30;;;15.50;;
79363;SDS011;68832;53.112;17.980;2023-05-07T04:28:01;18.20;;;13.10;;
79363;SDS011;68832;53.112;17.980;2023-05-07T04:30:28;22.60;;;15.00;;
79363;SDS011;68832;53.112;17.980;2023-05-07T04:32:56;16.80;;;12.10;;
79363;SDS011;68832;53.112;17.980;2023-05-07T04:35:23;19.80;;;13.50;;
79363;SDS011;68832;53.112;17.980;2023-05-07T04:37:50;20.40;;;13.90;;
79363;SDS011;68832;53.112;17.980;2023-05-07T04:40:17;17.60;;;12.80;;
79363;SDS011;68832;53.112;17.980;2023-05-07T04:42:45;17.10;;;11.30;;
79363;SDS011;68832;53.112;17.980;2023-05-07T04:45:12;21.20;;;14.40;;
79363;SDS011;68832;53.112;17.980;2023-05-07T04:47:40;16.20;;;11.50;;
79363;SDS011;68832;53.112;17.980;2023-05-07T04:50:07;14.40;;;10.20;;
79363;SDS011;68832;53.112;17.980;2023-05-07T04:52:35;18.60;;;12.90;;
79363;SDS011;68832;53.112;17.980;2023-05-07T04:55:03;16.40;;;11.70;;
79363;SDS011;68832;53.112;17.980;2023-05-07T04:57:35;18.40;;;11.20;;
79363;SDS011;68832;53.112;17.980;2023-05-07T05:00:02;15.40;;;10.90;;
79363;SDS011;68832;53.112;17.980;2023-05-07T05:02:32;16.80;;;10.90;;
79363;SDS011;68832;53.112;17.980;2023-05-07T05:05:00;18.30;;;12.50;;
79363;SDS011;68832;53.112;17.980;2023-05-07T05:07:28;17.70;;;11.00;;
79363;SDS011;68832;53.112;17.980;2023-05-07T05:09:55;13.90;;;8.80;;
79363;SDS011;68832;53.112;17.980;2023-05-07T05:17:18;16.30;;;9.80;;
79363;SDS011;68832;53.112;17.980;2023-05-07T05:19:46;14.60;;;9.20;;
79363;SDS011;68832;53.112;17.980;2023-05-07T05:22:13;15.90;;;11.50;;
79363;SDS011;68832;53.112;17.980;2023-05-07T05:24:40;18.60;;;11.20;;
79363;SDS011;68832;53.112;17.980;2023-05-07T05:27:08;16.60;;;11.00;;
79363;SDS011;68832;53.112;17.980;2023-05-07T05:29:35;16.70;;;10.50;;
79363;SDS011;68832;53.112;17.980;2023-05-07T05:32:02;15.90;;;10.20;;
79363;SDS011;68832;53.112;17.980;2023-05-07T05:34:29;25.00;;;11.00;;
79363;SDS011;68832;53.112;17.980;2023-05-07T05:36:56;17.70;;;10.40;;
79363;SDS011;68832;53.112;17.980;2023-05-07T05:39:24;15.90;;;11.30;;
79363;SDS011;68832;53.112;17.980;2023-05-07T05:41:51;13.80;;;10.50;;
79363;SDS011;68832;53.112;17.980;2023-05-07T05:44:17;13.90;;;9.10;;
79363;SDS011;68832;53.112;17.980;2023-05-07T05:46:44;17.80;;;9.20;;
79363;SDS011;68832;53.112;17.980;2023-05-07T05:49:11;14.80;;;9.30;;
79363;SDS011;68832;53.112;17.980;2023-05-07T05:51:38;12.40;;;8.30;;
79363;SDS011;68832;53.112;17.980;2023-05-07T05:54:05;17.70;;;10.10;;
79363;SDS011;68832;53.112;17.980;2023-05-07T05:56:32;14.50;;;9.60;;
79363;SDS011;68832;53.112;17.980;2023-05-07T05:58:59;12.40;;;8.10;;
79363;SDS011;68832;53.112;17.980;2023-05-07T06:01:26;13.70;;;8.10;;
79363;SDS011;68832;53.112;17.980;2023-05-07T06:03:54;11.10;;;7.40;;
79363;SDS011;68832;53.112;17.980;2023-05-07T06:06:20;13.90;;;9.60;;
79363;SDS011;68832;53.112;17.980;2023-05-07T06:08:47;10.30;;;7.60;;
79363;SDS011;68832;53.112;17.980;2023-05-07T06:11:16;9.90;;;7.70;;
79363;SDS011;68832;53.112;17.980;2023-05-07T06:16:12;12.20;;;8.40;;
79363;SDS011;68832;53.112;17.980;2023-05-07T06:18:39;10.20;;;7.90;;
79363;SDS011;68832;53.112;17.980;2023-05-07T06:23:34;9.20;;;5.20;;
79363;SDS011;68832;53.112;17.980;2023-05-07T06:26:01;7.50;;;5.70;;
79363;SDS011;68832;53.112;17.980;2023-05-07T06:28:33;11.40;;;6.80;;
79363;SDS011;68832;53.112;17.980;2023-05-07T06:31:13;9.90;;;6.70;;
79363;SDS011;68832;53.112;17.980;2023-05-07T06:33:48;11.30;;;7.40;;
79363;SDS011;68832;53.112;17.980;2023-05-07T06:36:16;6.70;;;4.30;;
79363;SDS011;68832;53.112;17.980;2023-05-07T06:38:43;7.00;;;5.00;;
79363;SDS011;68832;53.112;17.980;2023-05-07T06:41:09;10.10;;;5.30;;
79363;SDS011;68832;53.112;17.980;2023-05-07T06:43:38;8.40;;;6.40;;
79363;SDS011;68832;53.112;17.980;2023-05-07T06:46:31;9.00;;;6.80;;
79363;SDS011;68832;53.112;17.980;2023-05-07T06:48:58;9.30;;;6.30;;
79363;SDS011;68832;53.112;17.980;2023-05-07T06:51:25;9.80;;;6.50;;
79363;SDS011;68832;53.112;17.980;2023-05-07T06:53:53;10.80;;;5.70;;
79363;SDS011;68832;53.112;17.980;2023-05-07T06:56:20;9.30;;;5.50;;
79363;SDS011;68832;53.112;17.980;2023-05-07T06:58:48;9.10;;;5.40;;
79363;SDS011;68832;53.112;17.980;2023-05-07T07:01:15;10.10;;;5.10;;
79363;SDS011;68832;53.112;17.980;2023-05-07T07:03:43;8.10;;;5.10;;
79363;SDS011;68832;53.112;17.980;2023-05-07T07:06:10;7.80;;;5.50;;
79363;SDS011;68832;53.112;17.980;2023-05-07T07:08:37;8.70;;;4.70;;
79363;SDS011;68832;53.112;17.980;2023-05-07T07:11:05;8.10;;;6.00;;
79363;SDS011;68832;53.112;17.980;2023-05-07T07:13:32;9.10;;;4.70;;
79363;SDS011;68832;53.112;17.980;2023-05-07T07:15:59;7.20;;;4.90;;
79363;SDS011;68832;53.112;17.980;2023-05-07T07:18:27;8.50;;;6.30;;
79363;SDS011;68832;53.112;17.980;2023-05-07T07:20:54;8.00;;;4.70;;
79363;SDS011;68832;53.112;17.980;2023-05-07T07:23:21;7.20;;;4.50;;
79363;SDS011;68832;53.112;17.980;2023-05-07T07:25:48;6.20;;;3.90;;
79363;SDS011;68832;53.112;17.980;2023-05-07T07:28:15;8.00;;;5.50;;
79363;SDS011;68832;53.112;17.980;2023-05-07T07:30:43;9.00;;;5.10;;
79363;SDS011;68832;53.112;17.980;2023-05-07T07:33:11;7.00;;;5.40;;
79363;SDS011;68832;53.112;17.980;2023-05-07T07:35:38;9.70;;;6.30;;
79363;SDS011;68832;53.112;17.980;2023-05-07T07:38:05;8.50;;;5.20;;
79363;SDS011;68832;53.112;17.980;2023-05-07T07:40:34;7.00;;;4.50;;
79363;SDS011;68832;53.112;17.980;2023-05-07T07:43:01;7.30;;;4.30;;
79363;SDS011;68832;53.112;17.980;2023-05-07T07:45:28;9.50;;;5.50;;
79363;SDS011;68832;53.112;17.980;2023-05-07T07:47:55;7.10;;;5.50;;
79363;SDS011;68832;53.112;17.980;2023-05-07T07:50:22;6.20;;;4.30;;
79363;SDS011;68832;53.112;17.980;2023-05-07T07:52:49;7.10;;;5.20;;
79363;SDS011;68832;53.112;17.980;2023-05-07T07:55:19;6.10;;;3.60;;
79363;SDS011;68832;53.112;17.980;2023-05-07T07:57:49;9.60;;;5.20;;
79363;SDS011;68832;53.112;17.980;2023-05-07T08:00:17;8.80;;;5.00;;
79363;SDS011;68832;53.112;17.980;2023-05-07T08:02:43;8.90;;;4.50;;
79363;SDS011;68832;53.112;17.980;2023-05-07T08:05:12;6.10;;;3.80;;
79363;SDS011;68832;53.112;17.980;2023-05-07T08:07:40;7.30;;;4.10;;
79363;SDS011;68832;53.112;17.980;2023-05-07T08:10:07;7.20;;;3.60;;
79363;SDS011;68832;53.112;17.980;2023-05-07T08:15:03;4.60;;;2.30;;
79363;SDS011;68832;53.112;17.980;2023-05-07T08:17:30;5.60;;;3.60;;
79363;SDS011;68832;53.112;17.980;2023-05-07T08:19:57;6.70;;;2.80;;
79363;SDS011;68832;53.112;17.980;2023-05-07T08:22:24;5.30;;;2.30;;
79363;SDS011;68832;53.112;17.980;2023-05-07T08:24:51;6.90;;;4.40;;
79363;SDS011;68832;53.112;17.980;2023-05-07T08:27:20;4.60;;;2.90;;
79363;SDS011;68832;53.112;17.980;2023-05-07T08:29:47;4.90;;;2.40;;
79363;SDS011;68832;53.112;17.980;2023-05-07T08:32:15;4.30;;;2.60;;
79363;SDS011;68832;53.112;17.980;2023-05-07T08:34:42;4.40;;;2.80;;
79363;SDS011;68832;53.112;17.980;2023-05-07T08:37:09;4.40;;;2.50;;
79363;SDS011;68832;53.112;17.980;2023-05-07T08:39:37;4.10;;;2.40;;
79363;SDS011;68832;53.112;17.980;2023-05-07T08:42:05;4.70;;;2.20;;
79363;SDS011;68832;53.112;17.980;2023-05-07T08:44:34;4.40;;;2.70;;
79363;SDS011;68832;53.112;17.980;2023-05-07T08:47:05;4.10;;;2.70;;
79363;SDS011;68832;53.112;17.980;2023-05-07T08:49:33;3.70;;;2.40;;
79363;SDS011;68832;53.112;17.980;2023-05-07T08:52:01;4.40;;;2.10;;
79363;SDS011;68832;53.112;17.980;2023-05-07T08:54:29;5.20;;;2.50;;
79363;SDS011;68832;53.112;17.980;2023-05-07T08:56:56;4.70;;;3.70;;
79363;SDS011;68832;53.112;17.980;2023-05-07T08:59:23;3.70;;;2.50;;
79363;SDS011;68832;53.112;17.980;2023-05-07T09:01:50;5.20;;;3.30;;
79363;SDS011;68832;53.112;17.980;2023-05-07T09:04:17;5.70;;;2.20;;
79363;SDS011;68832;53.112;17.980;2023-05-07T09:06:44;5.40;;;3.50;;
79363;SDS011;68832;53.112;17.980;2023-05-07T09:09:14;4.10;;;2.50;;
79363;SDS011;68832;53.112;17.980;2023-05-07T09:11:41;3.80;;;1.60;;
79363;SDS011;68832;53.112;17.980;2023-05-07T09:14:09;5.00;;;2.60;;
79363;SDS011;68832;53.112;17.980;2023-05-07T09:16:37;5.60;;;2.10;;
79363;SDS011;68832;53.112;17.980;2023-05-07T09:19:05;5.40;;;2.70;;
79363;SDS011;68832;53.112;17.980;2023-05-07T09:21:33;2.50;;;1.60;;
79363;SDS011;68832;53.112;17.980;2023-05-07T09:26:33;3.30;;;1.80;;
79363;SDS011;68832;53.112;17.980;2023-05-07T09:31:29;6.20;;;2.60;;
79363;SDS011;68832;53.112;17.980;2023-05-07T09:33:57;4.70;;;2.90;;
79363;SDS011;68832;53.112;17.980;2023-05-07T09:36:25;3.50;;;2.10;;
79363;SDS011;68832;53.112;17.980;2023-05-07T09:38:54;4.00;;;2.40;;
79363;SDS011;68832;53.112;17.980;2023-05-07T09:41:23;6.20;;;2.50;;
79363;SDS011;68832;53.112;17.980;2023-05-07T09:44:02;2.40;;;2.10;;
79363;SDS011;68832;53.112;17.980;2023-05-07T09:46:33;3.30;;;1.60;;
79363;SDS011;68832;53.112;17.980;2023-05-07T09:49:06;4.50;;;2.10;;
79363;SDS011;68832;53.112;17.980;2023-05-07T09:51:43;4.20;;;2.10;;
79363;SDS011;68832;53.112;17.980;2023-05-07T09:54:16;3.90;;;1.80;;
79363;SDS011;68832;53.112;17.980;2023-05-07T09:56:44;4.60;;;2.30;;
79363;SDS011;68832;53.112;17.980;2023-05-07T09:59:13;3.20;;;1.70;;
79363;SDS011;68832;53.112;17.980;2023-05-07T10:01:42;4.30;;;2.30;;
79363;SDS011;68832;53.112;17.980;2023-05-07T10:04:10;2.60;;;2.10;;
79363;SDS011;68832;53.112;17.980;2023-05-07T10:06:38;4.70;;;2.40;;
79363;SDS011;68832;53.112;17.980;2023-05-07T10:09:05;3.90;;;2.50;;
79363;SDS011;68832;53.112;17.980;2023-05-07T10:11:36;3.50;;;2.70;;
79363;SDS011;68832;53.112;17.980;2023-05-07T10:14:03;4.50;;;2.70;;
79363;SDS011;68832;53.112;17.980;2023-05-07T10:16:33;3.00;;;1.90;;
79363;SDS011;68832;53.112;17.980;2023-05-07T10:19:04;4.40;;;3.20;;
79363;SDS011;68832;53.112;17.980;2023-05-07T10:21:39;3.60;;;2.10;;
79363;SDS011;68832;53.112;17.980;2023-05-07T10:24:09;5.20;;;2.40;;
79363;SDS011;68832;53.112;17.980;2023-05-07T10:26:42;3.40;;;1.80;;
79363;SDS011;68832;53.112;17.980;2023-05-07T10:32:33;4.60;;;2.60;;
79363;SDS011;68832;53.112;17.980;2023-05-07T10:35:15;3.70;;;2.80;;
79363;SDS011;68832;53.112;17.980;2023-05-07T10:37:48;3.90;;;2.70;;
79363;SDS011;68832;53.112;17.980;2023-05-07T10:42:54;5.60;;;2.70;;
79363;SDS011;68832;53.112;17.980;2023-05-07T10:45:22;3.90;;;2.80;;
79363;SDS011;68832;53.112;17.980;2023-05-07T10:50:44;5.20;;;1.70;;
79363;SDS011;68832;53.112;17.980;2023-05-07T10:55:51;4.00;;;2.60;;
79363;SDS011;68832;53.112;17.980;2023-05-07T10:58:48;3.60;;;1.80;;
79363;SDS011;68832;53.112;17.980;2023-05-07T11:04:28;3.40;;;1.90;;
79363;SDS011;68832;53.112;17.980;2023-05-07T11:15:36;4.70;;;2.90;;
79363;SDS011;68832;53.112;17.980;2023-05-07T11:18:07;2.70;;;2.10;;
79363;SDS011;68832;53.112;17.980;2023-05-07T11:26:16;4.40;;;2.20;;
79363;SDS011;68832;53.112;17.980;2023-05-07T11:28:44;5.00;;;2.60;;
79363;SDS011;68832;53.112;17.980;2023-05-07T11:31:11;2.00;;;1.40;;
79363;SDS011;68832;53.112;17.980;2023-05-07T11:33:38;6.30;;;3.10;;
79363;SDS011;68832;53.112;17.980;2023-05-07T11:36:07;4.80;;;1.70;;
79363;SDS011;68832;53.112;17.980;2023-05-07T11:38:38;5.60;;;1.90;;
79363;SDS011;68832;53.112;17.980;2023-05-07T11:41:05;4.00;;;2.10;;
79363;SDS011;68832;53.112;17.980;2023-05-07T11:43:32;5.70;;;1.90;;
79363;SDS011;68832;53.112;17.980;2023-05-07T11:46:05;4.30;;;1.80;;
79363;SDS011;68832;53.112;17.980;2023-05-07T11:48:34;2.70;;;1.40;;
79363;SDS011;68832;53.112;17.980;2023-05-07T11:51:02;2.50;;;1.50;;
79363;SDS011;68832;53.112;17.980;2023-05-07T11:53:40;2.60;;;1.70;;
79363;SDS011;68832;53.112;17.980;2023-05-07T11:56:15;6.30;;;2.60;;
79363;SDS011;68832;53.112;17.980;2023-05-07T11:58:43;2.40;;;1.90;;
79363;SDS011;68832;53.112;17.980;2023-05-07T12:03:41;3.90;;;2.80;;
79363;SDS011;68832;53.112;17.980;2023-05-07T12:06:10;2.90;;;2.30;;
79363;SDS011;68832;53.112;17.980;2023-05-07T12:08:38;3.90;;;2.10;;
79363;SDS011;68832;53.112;17.980;2023-05-07T12:11:08;4.40;;;4.00;;
79363;SDS011;68832;53.112;17.980;2023-05-07T12:13:37;4.80;;;2.10;;
79363;SDS011;68832;53.112;17.980;2023-05-07T12:16:05;4.10;;;2.40;;
79363;SDS011;68832;53.112;17.980;2023-05-07T12:18:36;3.70;;;2.00;;
79363;SDS011;68832;53.112;17.980;2023-05-07T12:21:04;5.00;;;1.90;;
79363;SDS011;68832;53.112;17.980;2023-05-07T12:23:31;5.30;;;1.90;;
79363;SDS011;68832;53.112;17.980;2023-05-07T12:25:59;2.50;;;1.50;;
79363;SDS011;68832;53.112;17.980;2023-05-07T12:28:26;4.50;;;2.30;;
79363;SDS011;68832;53.112;17.980;2023-05-07T12:30:53;2.80;;;1.40;;
79363;SDS011;68832;53.112;17.980;2023-05-07T12:33:24;3.90;;;2.50;;
79363;SDS011;68832;53.112;17.980;2023-05-07T12:35:53;3.20;;;2.20;;
79363;SDS011;68832;53.112;17.980;2023-05-07T12:38:21;3.70;;;1.70;;
79363;SDS011;68832;53.112;17.980;2023-05-07T12:40:53;6.40;;;3.80;;
79363;SDS011;68832;53.112;17.980;2023-05-07T12:43:23;9.10;;;3.90;;
79363;SDS011;68832;53.112;17.980;2023-05-07T12:45:52;4.30;;;2.40;;
79363;SDS011;68832;53.112;17.980;2023-05-07T12:48:21;4.00;;;2.20;;
79363;SDS011;68832;53.112;17.980;2023-05-07T12:50:52;3.60;;;1.90;;
79363;SDS011;68832;53.112;17.980;2023-05-07T12:53:21;6.00;;;1.60;;
79363;SDS011;68832;53.112;17.980;2023-05-07T12:55:50;5.10;;;3.10;;
79363;SDS011;68832;53.112;17.980;2023-05-07T12:58:30;2.50;;;1.10;;
79363;SDS011;68832;53.112;17.980;2023-05-07T13:01:00;3.50;;;2.80;;
79363;SDS011;68832;53.112;17.980;2023-05-07T13:03:31;3.00;;;1.90;;
79363;SDS011;68832;53.112;17.980;2023-05-07T13:08:32;2.60;;;1.10;;
79363;SDS011;68832;53.112;17.980;2023-05-07T13:11:02;3.40;;;1.50;;
79363;SDS011;68832;53.112;17.980;2023-05-07T13:13:30;2.80;;;1.80;;
79363;SDS011;68832;53.112;17.980;2023-05-07T13:15:58;5.50;;;2.70;;
79363;SDS011;68832;53.112;17.980;2023-05-07T13:18:25;3.10;;;1.40;;
79363;SDS011;68832;53.112;17.980;2023-05-07T13:20:53;2.00;;;1.20;;
79363;SDS011;68832;53.112;17.980;2023-05-07T13:23:20;4.00;;;3.00;;
79363;SDS011;68832;53.112;17.980;2023-05-07T13:25:47;6.90;;;3.90;;
79363;SDS011;68832;53.112;17.980;2023-05-07T13:28:15;2.80;;;1.80;;
79363;SDS011;68832;53.112;17.980;2023-05-07T13:30:42;2.70;;;1.90;;
79363;SDS011;68832;53.112;17.980;2023-05-07T13:33:09;3.90;;;1.70;;
79363;SDS011;68832;53.112;17.980;2023-05-07T13:35:36;2.10;;;1.70;;
79363;SDS011;68832;53.112;17.980;2023-05-07T13:38:03;6.20;;;2.30;;
79363;SDS011;68832;53.112;17.980;2023-05-07T13:40:30;5.50;;;2.50;;
79363;SDS011;68832;53.112;17.980;2023-05-07T13:42:57;4.00;;;1.70;;
79363;SDS011;68832;53.112;17.980;2023-05-07T13:45:26;10.70;;;6.20;;
79363;SDS011;68832;53.112;17.980;2023-05-07T13:47:53;5.40;;;2.70;;
79363;SDS011;68832;53.112;17.980;2023-05-07T13:50:20;3.10;;;2.00;;
79363;SDS011;68832;53.112;17.980;2023-05-07T13:52:46;3.00;;;2.20;;
79363;SDS011;68832;53.112;17.980;2023-05-07T13:55:17;2.90;;;2.10;;
79363;SDS011;68832;53.112;17.980;2023-05-07T13:57:44;7.40;;;4.00;;
79363;SDS011;68832;53.112;17.980;2023-05-07T14:00:12;7.20;;;2.40;;
79363;SDS011;68832;53.112;17.980;2023-05-07T14:02:42;3.70;;;1.50;;
79363;SDS011;68832;53.112;17.980;2023-05-07T14:05:09;8.20;;;5.20;;
79363;SDS011;68832;53.112;17.980;2023-05-07T14:07:36;4.50;;;2.10;;
79363;SDS011;68832;53.112;17.980;2023-05-07T14:10:04;9.60;;;6.90;;
79363;SDS011;68832;53.112;17.980;2023-05-07T14:12:32;3.40;;;1.40;;
79363;SDS011;68832;53.112;17.980;2023-05-07T14:14:59;1.80;;;1.20;;
79363;SDS011;68832;53.112;17.980;2023-05-07T14:17:26;2.90;;;2.20;;
79363;SDS011;68832;53.112;17.980;2023-05-07T14:19:53;3.40;;;1.50;;
79363;SDS011;68832;53.112;17.980;2023-05-07T14:22:21;8.20;;;2.30;;
79363;SDS011;68832;53.112;17.980;2023-05-07T14:24:51;2.70;;;1.70;;
79363;SDS011;68832;53.112;17.980;2023-05-07T14:27:17;3.10;;;1.60;;
79363;SDS011;68832;53.112;17.980;2023-05-07T14:29:44;3.20;;;2.00;;
79363;SDS011;68832;53.112;17.980;2023-05-07T14:32:11;5.30;;;2.80;;
79363;SDS011;68832;53.112;17.980;2023-05-07T14:34:39;3.10;;;1.90;;
79363;SDS011;68832;53.112;17.980;2023-05-07T14:37:06;3.50;;;1.90;;
79363;SDS011;68832;53.112;17.980;2023-05-07T14:39:32;6.70;;;2.10;;
79363;SDS011;68832;53.112;17.980;2023-05-07T14:41:59;4.50;;;2.90;;
79363;SDS011;68832;53.112;17.980;2023-05-07T14:44:26;1.90;;;1.00;;
79363;SDS011;68832;53.112;17.980;2023-05-07T14:46:53;2.60;;;1.60;;
79363;SDS011;68832;53.112;17.980;2023-05-07T14:49:20;4.70;;;1.70;;
79363;SDS011;68832;53.112;17.980;2023-05-07T14:51:47;3.70;;;1.70;;
79363;SDS011;68832;53.112;17.980;2023-05-07T14:54:14;3.10;;;1.90;;
79363;SDS011;68832;53.112;17.980;2023-05-07T14:56:41;2.00;;;1.50;;
79363;SDS011;68832;53.112;17.980;2023-05-07T14:59:08;2.40;;;1.30;;
79363;SDS011;68832;53.112;17.980;2023-05-07T15:01:35;4.50;;;2.90;;
79363;SDS011;68832;53.112;17.980;2023-05-07T15:04:03;3.50;;;1.70;;
79363;SDS011;68832;53.112;17.980;2023-05-07T15:06:30;3.70;;;2.10;;
79363;SDS011;68832;53.112;17.980;2023-05-07T15:08:58;3.10;;;1.30;;
79363;SDS011;68832;53.112;17.980;2023-05-07T15:11:25;4.60;;;1.60;;
79363;SDS011;68832;53.112;17.980;2023-05-07T15:13:52;3.90;;;2.00;;
79363;SDS011;68832;53.112;17.980;2023-05-07T15:16:19;3.70;;;2.90;;
79363;SDS011;68832;53.112;17.980;2023-05-07T15:18:46;2.70;;;1.80;;
79363;SDS011;68832;53.112;17.980;2023-05-07T15:21:13;2.60;;;1.30;;